sensor_id;sensor_type;location;lat;lon;timestamp;temperature;humidity
3628;DHT22;1830;49.000;12.074;2023-11-21T00:01:45;6.70;99.90
3628;DHT22;1830;49.000;12.074;2023-11-21T00:04:13;6.70;99.90
3628;DHT22;1830;49.000;12.074;2023-11-21T00:06:41;6.70;99.90
3628;DHT22;1830;49.000;12.074;2023-11-21T00:09:07;6.70;99.90
3628;DHT22;1830;49.000;12.074;2023-11-21T00:11:37;6.70;99.90
3628;DHT22;1830;49.000;12.074;2023-11-21T00:14:04;6.80;99.90
3628;DHT22;1830;49.000;12.074;2023-11-21T00:16:32;6.80;99.90
3628;DHT22;1830;49.000;12.074;2023-11-21T00:18:59;6.60;99.90
3628;DHT22;1830;49.000;12.074;2023-11-21T00:21:26;6.70;99.90
3628;DHT22;1830;49.000;12.074;2023-11-21T00:23:53;6.80;99.90
3628;DHT22;1830;49.000;12.074;2023-11-21T00:26:19;6.80;99.90
3628;DHT22;1830;49.000;12.074;2023-11-21T00:28:46;6.80;99.90
3628;DHT22;1830;49.000;12.074;2023-11-21T00:31:13;6.80;99.90
3628;DHT22;1830;49.000;12.074;2023-11-21T00:33:40;6.80;99.90
3628;DHT22;1830;49.000;12.074;2023-11-21T00:36:08;6.70;99.90
3628;DHT22;1830;49.000;12.074;2023-11-21T00:38:35;6.70;99.90
3628;DHT22;1830;49.000;12.074;2023-11-21T00:41:02;6.70;99.90
3628;DHT22;1830;49.000;12.074;2023-11-21T00:43:29;6.70;99.90
3628;DHT22;1830;49.000;12.074;2023-11-21T00:45:55;6.80;99.90
3628;DHT22;1830;49.000;12.074;2023-11-21T00:48:22;6.70;99.90
3628;DHT22;1830;49.000;12.074;2023-11-21T00:50:50;6.70;99.90
3628;DHT22;1830;49.000;12.074;2023-11-21T00:53:17;6.70;99.90
3628;DHT22;1830;49.000;12.074;2023-11-21T00:55:44;6.70;99.90
3628;DHT22;1830;49.000;12.074;2023-11-21T00:58:11;6.80;99.90
3628;DHT22;1830;49.000;12.074;2023-11-21T01:00:38;6.80;99.90
3628;DHT22;1830;49.000;12.074;2023-11-21T01:03:05;6.90;99.90
3628;DHT22;1830;49.000;12.074;2023-11-21T01:05:33;6.90;99.90
3628;DHT22;1830;49.000;12.074;2023-11-21T01:08:01;6.80;99.90
3628;DHT22;1830;49.000;12.074;2023-11-21T01:10:28;6.80;99.90
3628;DHT22;1830;49.000;12.074;2023-11-21T01:12:55;6.90;99.90
3628;DHT22;1830;49.000;12.074;2023-11-21T01:15:23;7.00;99.90
3628;DHT22;1830;49.000;12.074;2023-11-21T01:17:51;6.90;99.90
3628;DHT22;1830;49.000;12.074;2023-11-21T01:20:18;7.00;99.90
3628;DHT22;1830;49.000;12.074;2023-11-21T01:22:45;7.00;99.90
3628;DHT22;1830;49.000;12.074;2023-11-21T01:25:15;7.00;99.90
3628;DHT22;1830;49.000;12.074;2023-11-21T01:27:42;7.10;99.90
3628;DHT22;1830;49.000;12.074;2023-11-21T01:30:10;7.00;99.90
3628;DHT22;1830;49.000;12.074;2023-11-21T01:32:37;7.00;99.90
3628;DHT22;1830;49.000;12.074;2023-11-21T01:35:04;6.90;99.90
3628;DHT22;1830;49.000;12.074;2023-11-21T01:37:32;6.90;99.90
3628;DHT22;1830;49.000;12.074;2023-11-21T01:39:59;6.90;99.90
3628;DHT22;1830;49.000;12.074;2023-11-21T01:42:28;7.00;99.90
3628;DHT22;1830;49.000;12.074;2023-11-21T01:44:56;6.90;99.90
3628;DHT22;1830;49.000;12.074;2023-11-21T01:47:22;6.90;99.90
3628;DHT22;1830;49.000;12.074;2023-11-21T01:49:49;6.80;99.90
3628;DHT22;1830;49.000;12.074;2023-11-21T01:52:16;6.80;99.90
3628;DHT22;1830;49.000;12.074;2023-11-21T01:54:43;6.90;99.90
3628;DHT22;1830;49.000;12.074;2023-11-21T01:57:10;6.90;99.90
3628;DHT22;1830;49.000;12.074;2023-11-21T01:59:40;6.80;99.90
3628;DHT22;1830;49.000;12.074;2023-11-21T02:02:07;6.80;99.90
3628;DHT22;1830;49.000;12.074;2023-11-21T02:04:35;6.90;99.90
3628;DHT22;1830;49.000;12.074;2023-11-21T02:07:03;6.80;99.90
3628;DHT22;1830;49.000;12.074;2023-11-21T02:09:31;6.90;99.90
3628;DHT22;1830;49.000;12.074;2023-11-21T02:11:58;6.80;99.90
3628;DHT22;1830;49.000;12.074;2023-11-21T02:14:25;6.80;99.90
3628;DHT22;1830;49.000;12.074;2023-11-21T02:16:54;6.90;99.90
3628;DHT22;1830;49.000;12.074;2023-11-21T02:19:23;6.90;99.90
3628;DHT22;1830;49.000;12.074;2023-11-21T02:21:51;6.90;99.90
3628;DHT22;1830;49.000;12.074;2023-11-21T02:24:20;6.90;99.90
3628;DHT22;1830;49.000;12.074;2023-11-21T02:26:47;6.90;99.90
3628;DHT22;1830;49.000;12.074;2023-11-21T02:29:16;7.00;99.90
3628;DHT22;1830;49.000;12.074;2023-11-21T02:31:45;7.00;99.90
3628;DHT22;1830;49.000;12.074;2023-11-21T02:34:14;7.00;99.90
3628;DHT22;1830;49.000;12.074;2023-11-21T02:36:41;7.00;99.90
3628;DHT22;1830;49.000;12.074;2023-11-21T02:39:09;7.00;99.90
3628;DHT22;1830;49.000;12.074;2023-11-21T02:41:37;7.00;99.90
3628;DHT22;1830;49.000;12.074;2023-11-21T02:44:05;7.00;99.90
3628;DHT22;1830;49.000;12.074;2023-11-21T02:46:33;7.00;99.90
3628;DHT22;1830;49.000;12.074;2023-11-21T02:49:00;7.00;99.90
3628;DHT22;1830;49.000;12.074;2023-11-21T02:51:27;7.00;99.90
3628;DHT22;1830;49.000;12.074;2023-11-21T02:53:54;7.00;99.90
3628;DHT22;1830;49.000;12.074;2023-11-21T02:56:24;7.00;99.90
3628;DHT22;1830;49.000;12.074;2023-11-21T02:58:52;6.90;99.90
3628;DHT22;1830;49.000;12.074;2023-11-21T03:01:19;6.90;99.90
3628;DHT22;1830;49.000;12.074;2023-11-21T03:03:46;7.00;99.90
3628;DHT22;1830;49.000;12.074;2023-11-21T03:06:16;7.00;99.90
3628;DHT22;1830;49.000;12.074;2023-11-21T03:08:43;7.00;99.90
3628;DHT22;1830;49.000;12.074;2023-11-21T03:11:10;7.00;99.90
3628;DHT22;1830;49.000;12.074;2023-11-21T03:13:38;7.00;99.90
3628;DHT22;1830;49.000;12.074;2023-11-21T03:16:07;6.90;99.90
3628;DHT22;1830;49.000;12.074;2023-11-21T03:18:34;7.00;99.90
3628;DHT22;1830;49.000;12.074;2023-11-21T03:21:01;7.00;99.90
3628;DHT22;1830;49.000;12.074;2023-11-21T03:23:28;7.00;99.90
3628;DHT22;1830;49.000;12.074;2023-11-21T03:25:55;7.00;99.90
3628;DHT22;1830;49.000;12.074;2023-11-21T03:28:22;7.00;99.90
3628;DHT22;1830;49.000;12.074;2023-11-21T03:30:49;7.00;99.90
3628;DHT22;1830;49.000;12.074;2023-11-21T03:33:17;7.00;99.90
3628;DHT22;1830;49.000;12.074;2023-11-21T03:35:44;7.00;99.90
3628;DHT22;1830;49.000;12.074;2023-11-21T03:38:11;7.00;99.90
3628;DHT22;1830;49.000;12.074;2023-11-21T03:40:38;7.00;99.90
3628;DHT22;1830;49.000;12.074;2023-11-21T03:43:05;7.00;99.90
3628;DHT22;1830;49.000;12.074;2023-11-21T03:45:32;6.90;99.90
3628;DHT22;1830;49.000;12.074;2023-11-21T03:47:59;6.90;99.90
3628;DHT22;1830;49.000;12.074;2023-11-21T03:50:28;6.90;99.90
3628;DHT22;1830;49.000;12.074;2023-11-21T03:52:55;6.90;99.90
3628;DHT22;1830;49.000;12.074;2023-11-21T03:55:22;6.90;99.90
3628;DHT22;1830;49.000;12.074;2023-11-21T03:57:49;6.90;99.90
3628;DHT22;1830;49.000;12.074;2023-11-21T04:00:17;6.90;99.90
3628;DHT22;1830;49.000;12.074;2023-11-21T04:02:45;6.90;99.90
3628;DHT22;1830;49.000;12.074;2023-11-21T04:05:13;6.90;99.90
3628;DHT22;1830;49.000;12.074;2023-11-21T04:07:41;6.90;99.90
3628;DHT22;1830;49.000;12.074;2023-11-21T04:10:08;6.90;99.90
3628;DHT22;1830;49.000;12.074;2023-11-21T04:12:38;6.90;99.90
3628;DHT22;1830;49.000;12.074;2023-11-21T04:15:05;6.90;99.90
3628;DHT22;1830;49.000;12.074;2023-11-21T04:17:34;6.90;99.90
3628;DHT22;1830;49.000;12.074;2023-11-21T04:20:02;6.90;99.90
3628;DHT22;1830;49.000;12.074;2023-11-21T04:22:30;6.90;99.90
3628;DHT22;1830;49.000;12.074;2023-11-21T04:24:58;6.90;99.90
3628;DHT22;1830;49.000;12.074;2023-11-21T04:27:24;6.90;99.90
3628;DHT22;1830;49.000;12.074;2023-11-21T04:29:51;6.90;99.90
3628;DHT22;1830;49.000;12.074;2023-11-21T04:32:18;6.90;99.90
3628;DHT22;1830;49.000;12.074;2023-11-21T04:34:46;6.90;99.90
3628;DHT22;1830;49.000;12.074;2023-11-21T04:37:12;6.90;99.90
3628;DHT22;1830;49.000;12.074;2023-11-21T04:39:39;6.90;99.90
3628;DHT22;1830;49.000;12.074;2023-11-21T04:42:07;6.90;99.90
3628;DHT22;1830;49.000;12.074;2023-11-21T04:44:34;6.90;99.90
3628;DHT22;1830;49.000;12.074;2023-11-21T04:47:02;6.90;99.90
3628;DHT22;1830;49.000;12.074;2023-11-21T04:49:30;6.90;99.90
3628;DHT22;1830;49.000;12.074;2023-11-21T04:51:56;6.90;99.90
3628;DHT22;1830;49.000;12.074;2023-11-21T04:54:23;6.90;99.90
3628;DHT22;1830;49.000;12.074;2023-11-21T04:56:50;6.90;99.90
3628;DHT22;1830;49.000;12.074;2023-11-21T04:59:18;6.90;99.90
3628;DHT22;1830;49.000;12.074;2023-11-21T05:01:45;6.90;99.90
3628;DHT22;1830;49.000;12.074;2023-11-21T05:04:12;6.90;99.90
3628;DHT22;1830;49.000;12.074;2023-11-21T05:06:40;6.90;99.90
3628;DHT22;1830;49.000;12.074;2023-11-21T05:09:07;6.90;99.90
3628;DHT22;1830;49.000;12.074;2023-11-21T05:11:37;6.90;99.90
3628;DHT22;1830;49.000;12.074;2023-11-21T05:14:04;6.90;99.90
3628;DHT22;1830;49.000;12.074;2023-11-21T05:16:43;6.80;99.90
3628;DHT22;1830;49.000;12.074;2023-11-21T05:19:10;6.80;99.90
3628;DHT22;1830;49.000;12.074;2023-11-21T05:21:38;6.90;99.90
3628;DHT22;1830;49.000;12.074;2023-11-21T05:24:06;6.90;99.90
3628;DHT22;1830;49.000;12.074;2023-11-21T05:26:36;7.20;99.90
3628;DHT22;1830;49.000;12.074;2023-11-21T05:29:05;7.20;99.90
3628;DHT22;1830;49.000;12.074;2023-11-21T05:31:32;7.10;99.90
3628;DHT22;1830;49.000;12.074;2023-11-21T05:34:01;7.00;99.90
3628;DHT22;1830;49.000;12.074;2023-11-21T05:36:27;7.00;99.90
3628;DHT22;1830;49.000;12.074;2023-11-21T05:38:54;7.00;99.90
3628;DHT22;1830;49.000;12.074;2023-11-21T05:41:21;7.00;99.90
3628;DHT22;1830;49.000;12.074;2023-11-21T05:43:48;7.00;99.90
3628;DHT22;1830;49.000;12.074;2023-11-21T05:46:15;7.00;99.90
3628;DHT22;1830;49.000;12.074;2023-11-21T05:48:42;7.00;99.90
3628;DHT22;1830;49.000;12.074;2023-11-21T05:51:10;6.90;99.90
3628;DHT22;1830;49.000;12.074;2023-11-21T05:53:38;6.90;99.90
3628;DHT22;1830;49.000;12.074;2023-11-21T05:56:05;6.90;99.90
3628;DHT22;1830;49.000;12.074;2023-11-21T05:58:31;6.80;99.90
3628;DHT22;1830;49.000;12.074;2023-11-21T06:00:58;6.80;99.90
3628;DHT22;1830;49.000;12.074;2023-11-21T06:03:25;6.90;99.90
3628;DHT22;1830;49.000;12.074;2023-11-21T06:05:52;6.80;99.90
3628;DHT22;1830;49.000;12.074;2023-11-21T06:08:20;6.80;99.90
3628;DHT22;1830;49.000;12.074;2023-11-21T06:10:47;6.90;99.90
3628;DHT22;1830;49.000;12.074;2023-11-21T06:13:14;6.90;99.90
3628;DHT22;1830;49.000;12.074;2023-11-21T06:15:41;6.90;99.90
3628;DHT22;1830;49.000;12.074;2023-11-21T06:18:08;6.90;99.90
3628;DHT22;1830;49.000;12.074;2023-11-21T06:20:36;6.90;99.90
3628;DHT22;1830;49.000;12.074;2023-11-21T06:23:03;6.90;99.90
3628;DHT22;1830;49.000;12.074;2023-11-21T06:25:32;6.90;99.90
3628;DHT22;1830;49.000;12.074;2023-11-21T06:28:01;6.90;99.90
3628;DHT22;1830;49.000;12.074;2023-11-21T06:30:28;6.90;99.90
3628;DHT22;1830;49.000;12.074;2023-11-21T06:32:55;6.90;99.90
3628;DHT22;1830;49.000;12.074;2023-11-21T06:35:22;6.90;99.90
3628;DHT22;1830;49.000;12.074;2023-11-21T06:37:49;6.90;99.90
3628;DHT22;1830;49.000;12.074;2023-11-21T06:40:17;6.90;99.90
3628;DHT22;1830;49.000;12.074;2023-11-21T06:42:46;6.90;99.90
3628;DHT22;1830;49.000;12.074;2023-11-21T06:45:13;6.90;99.90
3628;DHT22;1830;49.000;12.074;2023-11-21T06:47:40;6.90;99.90
3628;DHT22;1830;49.000;12.074;2023-11-21T06:50:08;6.90;99.90
3628;DHT22;1830;49.000;12.074;2023-11-21T06:52:34;6.90;99.90
3628;DHT22;1830;49.000;12.074;2023-11-21T06:55:01;6.90;99.90
3628;DHT22;1830;49.000;12.074;2023-11-21T06:57:28;6.90;99.90
3628;DHT22;1830;49.000;12.074;2023-11-21T06:59:56;7.00;99.90
3628;DHT22;1830;49.000;12.074;2023-11-21T07:02:23;7.00;99.90
3628;DHT22;1830;49.000;12.074;2023-11-21T07:04:50;7.00;99.90
3628;DHT22;1830;49.000;12.074;2023-11-21T07:07:18;7.00;99.90
3628;DHT22;1830;49.000;12.074;2023-11-21T07:09:44;7.00;99.90
3628;DHT22;1830;49.000;12.074;2023-11-21T07:12:11;7.00;99.90
3628;DHT22;1830;49.000;12.074;2023-11-21T07:14:39;7.00;99.90
3628;DHT22;1830;49.000;12.074;2023-11-21T07:17:10;7.00;99.90
3628;DHT22;1830;49.000;12.074;2023-11-21T07:19:37;7.00;99.90
3628;DHT22;1830;49.000;12.074;2023-11-21T07:22:04;7.00;99.90
3628;DHT22;1830;49.000;12.074;2023-11-21T07:24:31;7.00;99.90
3628;DHT22;1830;49.000;12.074;2023-11-21T07:26:58;7.10;99.90
3628;DHT22;1830;49.000;12.074;2023-11-21T07:29:25;7.10;99.90
3628;DHT22;1830;49.000;12.074;2023-11-21T07:31:52;7.10;99.90
3628;DHT22;1830;49.000;12.074;2023-11-21T07:34:20;7.10;99.90
3628;DHT22;1830;49.000;12.074;2023-11-21T07:36:47;7.10;99.90
3628;DHT22;1830;49.000;12.074;2023-11-21T07:39:14;7.20;99.90
3628;DHT22;1830;49.000;12.074;2023-11-21T07:41:41;7.20;99.90
3628;DHT22;1830;49.000;12.074;2023-11-21T07:44:14;7.20;99.90
3628;DHT22;1830;49.000;12.074;2023-11-21T07:46:42;7.20;99.90
3628;DHT22;1830;49.000;12.074;2023-11-21T07:49:09;7.20;99.90
3628;DHT22;1830;49.000;12.074;2023-11-21T07:51:37;7.10;99.90
3628;DHT22;1830;49.000;12.074;2023-11-21T07:54:04;7.20;99.90
3628;DHT22;1830;49.000;12.074;2023-11-21T07:56:32;7.20;99.90
3628;DHT22;1830;49.000;12.074;2023-11-21T07:58:59;7.10;99.90
3628;DHT22;1830;49.000;12.074;2023-11-21T08:01:25;7.30;99.90
3628;DHT22;1830;49.000;12.074;2023-11-21T08:03:53;7.30;99.90
3628;DHT22;1830;49.000;12.074;2023-11-21T08:06:22;7.30;99.90
3628;DHT22;1830;49.000;12.074;2023-11-21T08:08:50;7.30;99.90
3628;DHT22;1830;49.000;12.074;2023-11-21T08:11:17;7.10;99.90
3628;DHT22;1830;49.000;12.074;2023-11-21T08:13:45;7.30;99.90
3628;DHT22;1830;49.000;12.074;2023-11-21T08:16:12;7.30;99.90
3628;DHT22;1830;49.000;12.074;2023-11-21T08:18:39;7.30;99.90
3628;DHT22;1830;49.000;12.074;2023-11-21T08:21:06;7.40;99.90
3628;DHT22;1830;49.000;12.074;2023-11-21T08:23:33;7.40;99.90
3628;DHT22;1830;49.000;12.074;2023-11-21T08:26:02;7.40;99.90
3628;DHT22;1830;49.000;12.074;2023-11-21T08:28:29;7.50;99.90
3628;DHT22;1830;49.000;12.074;2023-11-21T08:30:55;7.50;99.90
3628;DHT22;1830;49.000;12.074;2023-11-21T08:33:22;7.60;99.90
3628;DHT22;1830;49.000;12.074;2023-11-21T08:35:49;7.60;99.90
3628;DHT22;1830;49.000;12.074;2023-11-21T08:38:16;7.60;99.90
3628;DHT22;1830;49.000;12.074;2023-11-21T08:40:43;7.60;99.90
3628;DHT22;1830;49.000;12.074;2023-11-21T08:43:11;7.60;99.90
3628;DHT22;1830;49.000;12.074;2023-11-21T08:45:40;7.60;99.90
3628;DHT22;1830;49.000;12.074;2023-11-21T08:48:07;7.70;99.90
3628;DHT22;1830;49.000;12.074;2023-11-21T08:50:34;7.70;99.90
3628;DHT22;1830;49.000;12.074;2023-11-21T08:53:00;7.80;99.90
3628;DHT22;1830;49.000;12.074;2023-11-21T08:55:27;7.80;99.90
3628;DHT22;1830;49.000;12.074;2023-11-21T08:57:54;7.80;99.90
3628;DHT22;1830;49.000;12.074;2023-11-21T09:00:22;7.80;99.90
3628;DHT22;1830;49.000;12.074;2023-11-21T09:02:49;7.80;99.90
3628;DHT22;1830;49.000;12.074;2023-11-21T09:05:15;7.90;99.90
3628;DHT22;1830;49.000;12.074;2023-11-21T09:07:43;7.90;99.90
3628;DHT22;1830;49.000;12.074;2023-11-21T09:10:12;7.90;99.90
3628;DHT22;1830;49.000;12.074;2023-11-21T09:12:40;8.00;99.90
3628;DHT22;1830;49.000;12.074;2023-11-21T09:15:09;8.00;99.90
3628;DHT22;1830;49.000;12.074;2023-11-21T09:17:38;8.00;99.90
3628;DHT22;1830;49.000;12.074;2023-11-21T09:20:07;8.00;99.90
3628;DHT22;1830;49.000;12.074;2023-11-21T09:22:35;8.00;99.90
3628;DHT22;1830;49.000;12.074;2023-11-21T09:25:02;8.10;99.90
3628;DHT22;1830;49.000;12.074;2023-11-21T09:27:31;8.10;99.90
3628;DHT22;1830;49.000;12.074;2023-11-21T09:29:57;8.10;99.90
3628;DHT22;1830;49.000;12.074;2023-11-21T09:32:24;8.20;99.90
3628;DHT22;1830;49.000;12.074;2023-11-21T09:34:52;8.20;99.90
3628;DHT22;1830;49.000;12.074;2023-11-21T09:37:21;8.30;99.90
3628;DHT22;1830;49.000;12.074;2023-11-21T09:39:47;8.30;99.90
3628;DHT22;1830;49.000;12.074;2023-11-21T09:42:21;8.20;99.90
3628;DHT22;1830;49.000;12.074;2023-11-21T09:44:56;8.30;99.90
3628;DHT22;1830;49.000;12.074;2023-11-21T09:47:27;8.30;99.90
3628;DHT22;1830;49.000;12.074;2023-11-21T09:49:56;8.40;99.90
3628;DHT22;1830;49.000;12.074;2023-11-21T09:52:27;8.40;99.90
3628;DHT22;1830;49.000;12.074;2023-11-21T09:54:55;8.40;99.90
3628;DHT22;1830;49.000;12.074;2023-11-21T09:57:24;8.40;99.90
3628;DHT22;1830;49.000;12.074;2023-11-21T09:59:52;8.40;99.90
3628;DHT22;1830;49.000;12.074;2023-11-21T10:02:22;8.40;99.90
3628;DHT22;1830;49.000;12.074;2023-11-21T10:04:51;8.50;99.90
3628;DHT22;1830;49.000;12.074;2023-11-21T10:07:20;8.50;99.90
3628;DHT22;1830;49.000;12.074;2023-11-21T10:09:47;8.50;99.90
3628;DHT22;1830;49.000;12.074;2023-11-21T10:12:15;8.50;99.90
3628;DHT22;1830;49.000;12.074;2023-11-21T10:14:42;8.50;99.90
3628;DHT22;1830;49.000;12.074;2023-11-21T10:17:11;8.50;99.90
3628;DHT22;1830;49.000;12.074;2023-11-21T10:19:39;8.40;99.90
3628;DHT22;1830;49.000;12.074;2023-11-21T10:22:07;8.40;99.90
3628;DHT22;1830;49.000;12.074;2023-11-21T10:24:35;8.40;99.90
3628;DHT22;1830;49.000;12.074;2023-11-21T10:27:04;8.40;99.90
3628;DHT22;1830;49.000;12.074;2023-11-21T10:29:31;8.40;99.90
3628;DHT22;1830;49.000;12.074;2023-11-21T10:32:02;8.40;99.90
3628;DHT22;1830;49.000;12.074;2023-11-21T10:34:29;8.50;99.90
3628;DHT22;1830;49.000;12.074;2023-11-21T10:36:56;8.50;99.90
3628;DHT22;1830;49.000;12.074;2023-11-21T10:39:24;8.50;99.90
3628;DHT22;1830;49.000;12.074;2023-11-21T10:41:55;8.40;99.90
3628;DHT22;1830;49.000;12.074;2023-11-21T10:44:22;8.40;99.90
3628;DHT22;1830;49.000;12.074;2023-11-21T10:46:50;8.40;99.90
3628;DHT22;1830;49.000;12.074;2023-11-21T10:49:21;8.50;99.90
3628;DHT22;1830;49.000;12.074;2023-11-21T10:51:50;8.50;99.90
3628;DHT22;1830;49.000;12.074;2023-11-21T10:54:21;8.60;99.90
3628;DHT22;1830;49.000;12.074;2023-11-21T10:56:50;8.60;99.90
3628;DHT22;1830;49.000;12.074;2023-11-21T10:59:21;8.70;99.90
3628;DHT22;1830;49.000;12.074;2023-11-21T11:01:50;8.80;99.90
3628;DHT22;1830;49.000;12.074;2023-11-21T11:04:18;8.70;99.90
3628;DHT22;1830;49.000;12.074;2023-11-21T11:06:50;8.70;99.90
3628;DHT22;1830;49.000;12.074;2023-11-21T11:09:18;8.70;99.90
3628;DHT22;1830;49.000;12.074;2023-11-21T11:11:45;8.70;99.90
3628;DHT22;1830;49.000;12.074;2023-11-21T11:14:13;8.70;99.90
3628;DHT22;1830;49.000;12.074;2023-11-21T11:16:41;8.70;99.90
3628;DHT22;1830;49.000;12.074;2023-11-21T11:19:08;8.70;99.90
3628;DHT22;1830;49.000;12.074;2023-11-21T11:21:45;8.70;99.90
3628;DHT22;1830;49.000;12.074;2023-11-21T11:27:22;8.70;99.90
3628;DHT22;1830;49.000;12.074;2023-11-21T11:30:09;8.60;99.90
3628;DHT22;1830;49.000;12.074;2023-11-21T11:32:47;8.80;99.90
3628;DHT22;1830;49.000;12.074;2023-11-21T11:35:22;8.70;99.90
3628;DHT22;1830;49.000;12.074;2023-11-21T11:37:51;8.70;99.90
3628;DHT22;1830;49.000;12.074;2023-11-21T11:40:18;8.70;99.90
3628;DHT22;1830;49.000;12.074;2023-11-21T11:42:56;8.70;99.90
3628;DHT22;1830;49.000;12.074;2023-11-21T11:45:31;8.70;99.90
3628;DHT22;1830;49.000;12.074;2023-11-21T11:48:00;8.70;99.90
3628;DHT22;1830;49.000;12.074;2023-11-21T11:50:27;8.70;99.90
3628;DHT22;1830;49.000;12.074;2023-11-21T11:52:55;8.70;99.90
3628;DHT22;1830;49.000;12.074;2023-11-21T11:55:23;8.70;99.90
3628;DHT22;1830;49.000;12.074;2023-11-21T11:57:51;8.70;99.90
3628;DHT22;1830;49.000;12.074;2023-11-21T12:00:22;8.80;99.90
3628;DHT22;1830;49.000;12.074;2023-11-21T12:02:51;8.80;99.90
3628;DHT22;1830;49.000;12.074;2023-11-21T12:05:21;8.70;99.90
3628;DHT22;1830;49.000;12.074;2023-11-21T12:07:50;8.70;99.90
3628;DHT22;1830;49.000;12.074;2023-11-21T12:10:20;8.80;99.90
3628;DHT22;1830;49.000;12.074;2023-11-21T12:12:49;8.70;99.90
3628;DHT22;1830;49.000;12.074;2023-11-21T12:15:18;8.60;99.90
3628;DHT22;1830;49.000;12.074;2023-11-21T12:17:46;8.70;99.90
3628;DHT22;1830;49.000;12.074;2023-11-21T12:20:13;8.70;99.90
3628;DHT22;1830;49.000;12.074;2023-11-21T12:22:46;8.70;99.90
3628;DHT22;1830;49.000;12.074;2023-11-21T12:25:15;8.70;99.90
3628;DHT22;1830;49.000;12.074;2023-11-21T12:27:44;8.70;99.90
3628;DHT22;1830;49.000;12.074;2023-11-21T12:30:12;8.70;99.90
3628;DHT22;1830;49.000;12.074;2023-11-21T12:32:41;8.80;99.90
3628;DHT22;1830;49.000;12.074;2023-11-21T12:35:09;8.80;99.90
3628;DHT22;1830;49.000;12.074;2023-11-21T12:37:36;8.80;99.90
3628;DHT22;1830;49.000;12.074;2023-11-21T12:40:06;8.80;99.90
3628;DHT22;1830;49.000;12.074;2023-11-21T12:42:33;8.80;99.90
3628;DHT22;1830;49.000;12.074;2023-11-21T12:45:08;8.70;99.90
3628;DHT22;1830;49.000;12.074;2023-11-21T12:47:40;8.70;99.90
3628;DHT22;1830;49.000;12.074;2023-11-21T12:50:07;8.80;99.90
3628;DHT22;1830;49.000;12.074;2023-11-21T12:52:40;8.70;99.90
3628;DHT22;1830;49.000;12.074;2023-11-21T12:55:15;8.80;99.90
3628;DHT22;1830;49.000;12.074;2023-11-21T12:57:43;8.70;99.90
3628;DHT22;1830;49.000;12.074;2023-11-21T13:00:12;8.80;99.90
3628;DHT22;1830;49.000;12.074;2023-11-21T13:02:51;8.70;99.90
3628;DHT22;1830;49.000;12.074;2023-11-21T13:05:24;8.80;99.90
3628;DHT22;1830;49.000;12.074;2023-11-21T13:07:52;8.80;99.90
3628;DHT22;1830;49.000;12.074;2023-11-21T13:10:22;8.80;99.90
3628;DHT22;1830;49.000;12.074;2023-11-21T13:12:52;8.70;99.90
3628;DHT22;1830;49.000;12.074;2023-11-21T13:15:20;8.70;99.90
3628;DHT22;1830;49.000;12.074;2023-11-21T13:17:47;8.70;99.90
3628;DHT22;1830;49.000;12.074;2023-11-21T13:20:15;8.70;99.90
3628;DHT22;1830;49.000;12.074;2023-11-21T13:22:47;8.70;99.90
3628;DHT22;1830;49.000;12.074;2023-11-21T13:25:15;8.70;99.90
3628;DHT22;1830;49.000;12.074;2023-11-21T13:27:44;8.70;99.90
3628;DHT22;1830;49.000;12.074;2023-11-21T13:30:13;8.70;99.90
3628;DHT22;1830;49.000;12.074;2023-11-21T13:32:42;8.70;99.90
3628;DHT22;1830;49.000;12.074;2023-11-21T13:35:10;8.70;99.90
3628;DHT22;1830;49.000;12.074;2023-11-21T13:37:47;8.70;99.90
3628;DHT22;1830;49.000;12.074;2023-11-21T13:40:15;8.70;99.90
3628;DHT22;1830;49.000;12.074;2023-11-21T13:42:55;8.70;99.90
3628;DHT22;1830;49.000;12.074;2023-11-21T13:45:25;8.70;99.90
3628;DHT22;1830;49.000;12.074;2023-11-21T13:47:54;8.70;99.90
3628;DHT22;1830;49.000;12.074;2023-11-21T13:50:23;8.70;99.90
3628;DHT22;1830;49.000;12.074;2023-11-21T13:52:54;8.70;99.90
3628;DHT22;1830;49.000;12.074;2023-11-21T13:55:21;8.70;99.90
3628;DHT22;1830;49.000;12.074;2023-11-21T13:57:51;8.70;99.90
3628;DHT22;1830;49.000;12.074;2023-11-21T14:00:19;8.70;99.90
3628;DHT22;1830;49.000;12.074;2023-11-21T14:03:18;8.70;99.90
3628;DHT22;1830;49.000;12.074;2023-11-21T14:05:47;8.70;99.90
3628;DHT22;1830;49.000;12.074;2023-11-21T14:08:18;8.70;99.90
3628;DHT22;1830;49.000;12.074;2023-11-21T14:10:46;8.70;99.90
3628;DHT22;1830;49.000;12.074;2023-11-21T14:13:16;8.70;99.90
3628;DHT22;1830;49.000;12.074;2023-11-21T14:15:46;8.70;99.90
3628;DHT22;1830;49.000;12.074;2023-11-21T14:18:16;8.80;99.90
3628;DHT22;1830;49.000;12.074;2023-11-21T14:20:51;8.80;99.90
3628;DHT22;1830;49.000;12.074;2023-11-21T14:23:18;8.70;99.90
3628;DHT22;1830;49.000;12.074;2023-11-21T14:25:47;8.70;99.90
3628;DHT22;1830;49.000;12.074;2023-11-21T14:28:13;8.80;99.90
3628;DHT22;1830;49.000;12.074;2023-11-21T14:30:40;8.70;99.90
3628;DHT22;1830;49.000;12.074;2023-11-21T14:33:09;8.70;99.90
3628;DHT22;1830;49.000;12.074;2023-11-21T14:35:37;8.60;99.90
3628;DHT22;1830;49.000;12.074;2023-11-21T14:38:04;8.70;99.90
3628;DHT22;1830;49.000;12.074;2023-11-21T14:40:31;8.70;99.90
3628;DHT22;1830;49.000;12.074;2023-11-21T14:43:01;8.70;99.90
3628;DHT22;1830;49.000;12.074;2023-11-21T14:45:30;8.60;99.90
3628;DHT22;1830;49.000;12.074;2023-11-21T14:47:57;8.60;99.90
3628;DHT22;1830;49.000;12.074;2023-11-21T14:50:33;8.70;99.90
3628;DHT22;1830;49.000;12.074;2023-11-21T14:53:35;8.60;99.90
3628;DHT22;1830;49.000;12.074;2023-11-21T14:56:09;8.70;99.90
3628;DHT22;1830;49.000;12.074;2023-11-21T14:58:36;8.60;99.90
3628;DHT22;1830;49.000;12.074;2023-11-21T15:01:04;8.60;99.90
3628;DHT22;1830;49.000;12.074;2023-11-21T15:03:31;8.60;99.90
3628;DHT22;1830;49.000;12.074;2023-11-21T15:06:10;8.60;99.90
3628;DHT22;1830;49.000;12.074;2023-11-21T15:08:50;8.60;99.90
3628;DHT22;1830;49.000;12.074;2023-11-21T15:11:25;8.60;99.90
3628;DHT22;1830;49.000;12.074;2023-11-21T15:13:56;8.60;99.90
3628;DHT22;1830;49.000;12.074;2023-11-21T15:16:23;8.60;99.90
3628;DHT22;1830;49.000;12.074;2023-11-21T15:18:51;8.60;99.90
3628;DHT22;1830;49.000;12.074;2023-11-21T15:21:20;8.60;99.90
3628;DHT22;1830;49.000;12.074;2023-11-21T15:23:47;8.60;99.90
3628;DHT22;1830;49.000;12.074;2023-11-21T15:26:14;8.60;99.90
3628;DHT22;1830;49.000;12.074;2023-11-21T15:28:41;8.60;99.90
3628;DHT22;1830;49.000;12.074;2023-11-21T15:31:08;8.60;99.90
3628;DHT22;1830;49.000;12.074;2023-11-21T15:33:34;8.60;99.90
3628;DHT22;1830;49.000;12.074;2023-11-21T15:36:03;8.50;99.90
3628;DHT22;1830;49.000;12.074;2023-11-21T15:38:32;8.50;99.90
3628;DHT22;1830;49.000;12.074;2023-11-21T15:40:58;8.50;99.90
3628;DHT22;1830;49.000;12.074;2023-11-21T15:43:25;8.50;99.90
3628;DHT22;1830;49.000;12.074;2023-11-21T15:45:53;8.50;99.90
3628;DHT22;1830;49.000;12.074;2023-11-21T15:48:21;8.50;99.90
3628;DHT22;1830;49.000;12.074;2023-11-21T15:50:47;8.50;99.90
3628;DHT22;1830;49.000;12.074;2023-11-21T15:53:16;8.50;99.90
3628;DHT22;1830;49.000;12.074;2023-11-21T15:55:44;8.50;99.90
3628;DHT22;1830;49.000;12.074;2023-11-21T15:58:11;8.50;99.90
3628;DHT22;1830;49.000;12.074;2023-11-21T16:00:38;8.50;99.90
3628;DHT22;1830;49.000;12.074;2023-11-21T16:03:04;8.50;99.90
3628;DHT22;1830;49.000;12.074;2023-11-21T16:05:31;8.40;99.90
3628;DHT22;1830;49.000;12.074;2023-11-21T16:07:58;8.40;99.90
3628;DHT22;1830;49.000;12.074;2023-11-21T16:10:25;8.40;99.90
3628;DHT22;1830;49.000;12.074;2023-11-21T16:12:53;8.40;99.90